Time;durP1;ratioP1;P1;durP2;ratioP2;P2;SDS_P1;SDS_P2;PMS_P1;PMS_P2;Temp;Humidity;BMP_temperature;BMP_pressure;BME280_temperature;BME280_humidity;BME280_pressure;Samples;Min_cycle;Max_cycle;Signal;HPM_P1;HPM_P2
2023/04/07 00:03:16;;;;;;;28.50;22.40;;;;;;;4.14;84.24;100412.16;107155;1257;1016544;-72
2023/04/07 00:08:09;;;;;;;25.20;18.10;;;;;;;4.17;84.41;100409.88;107234;1254;1016093;-71
2023/04/07 00:13:03;;;;;;;25.90;17.80;;;;;;;4.19;84.62;100405.83;107254;1254;1015991;-72
2023/04/07 00:17:56;;;;;;;30.20;18.80;;;;;;;4.21;84.37;100403.17;107314;1254;1018294;-72
2023/04/07 00:22:49;;;;;;;24.00;16.80;;;;;;;4.24;84.38;100399.63;107239;1254;1018138;-72
2023/04/07 00:27:42;;;;;;;27.00;19.00;;;;;;;4.27;84.44;100397.52;107346;1254;1016431;-72
2023/04/07 00:32:35;;;;;;;27.00;19.40;;;;;;;4.29;84.64;100393.33;107205;1254;1016464;-72
2023/04/07 00:37:28;;;;;;;28.40;19.70;;;;;;;4.32;84.65;100391.04;107291;1254;1016252;-72
2023/04/07 00:42:24;;;;;;;26.80;18.90;;;;;;;4.35;84.85;100380.15;107264;1254;1018129;-72
2023/04/07 00:47:17;;;;;;;28.90;19.50;;;;;;;4.37;84.77;100384.19;107277;1254;1070696;-72
2023/04/07 00:52:11;;;;;;;28.30;18.70;;;;;;;4.41;84.97;100387.25;107265;1254;1018221;-72
2023/04/07 00:57:04;;;;;;;29.00;20.40;;;;;;;4.43;84.81;100381.99;107133;1253;1016485;-72
2023/04/07 01:07:44;;;;;;;25.40;19.40;;;;;;;4.49;84.99;100384.27;104397;1265;1702162;-72
2023/04/07 01:12:47;;;;;;;32.70;21.50;;;;;;;4.52;84.96;100383.35;106489;1265;1070777;-72
2023/04/07 01:17:53;;;;;;;33.20;21.30;;;;;;;4.55;85.08;100379.00;106475;1265;1051705;-72
2023/04/07 01:22:53;;;;;;;29.10;20.40;;;;;;;4.57;85.22;100379.95;106487;1265;1057788;-72
2023/04/07 01:28:02;;;;;;;29.90;21.20;;;;;;;4.61;85.36;100374.90;106476;1265;1073080;-72
2023/04/07 01:32:58;;;;;;;30.00;20.60;;;;;;;4.63;85.47;100372.23;106463;1265;1065002;-72
2023/04/07 01:37:52;;;;;;;32.30;21.80;;;;;;;4.65;85.48;100368.71;106300;1265;1070885;-72
2023/04/07 01:42:47;;;;;;;30.50;21.60;;;;;;;4.68;85.41;100367.95;106459;1265;1016508;-72
2023/04/07 01:47:43;;;;;;;31.50;21.40;;;;;;;4.71;85.53;100369.08;106477;1265;1058842;-72
2023/04/07 01:52:37;;;;;;;33.80;23.00;;;;;;;4.73;85.57;100371.23;106455;1265;1017652;-72
2023/04/07 01:57:31;;;;;;;36.50;24.20;;;;;;;4.74;85.88;100364.05;106511;1265;1017164;-72
2023/04/07 02:02:29;;;;;;;28.80;21.50;;;;;;;4.76;85.65;100367.73;106380;1264;1073423;-72
2023/04/07 02:07:40;;;;;;;32.90;22.70;;;;;;;4.78;85.75;100365.57;106592;1265;1016955;-72
2023/04/07 02:12:35;;;;;;;34.50;24.80;;;;;;;4.81;85.76;100359.48;106465;1265;1059371;-72
2023/04/07 02:17:38;;;;;;;36.10;24.60;;;;;;;4.84;85.84;100360.27;106434;1265;1072706;-72
2023/04/07 02:22:33;;;;;;;35.30;25.80;;;;;;;4.86;85.83;100356.04;106474;1265;1065561;-72
2023/04/07 02:27:25;;;;;;;35.00;23.30;;;;;;;4.89;86.05;100359.23;106493;1265;1070759;-72
2023/04/07 02:32:18;;;;;;;37.30;26.70;;;;;;;4.92;85.88;100359.68;106393;1265;1016122;-72
2023/04/07 02:37:11;;;;;;;35.30;24.80;;;;;;;4.94;85.94;100359.08;106482;1265;1016307;-72
2023/04/07 02:42:04;;;;;;;40.60;26.90;;;;;;;4.97;85.96;100355.38;106512;1265;1016414;-72
2023/04/07 02:46:57;;;;;;;39.40;25.20;;;;;;;5.00;86.11;100357.69;106493;1265;1016808;-72
2023/04/07 02:51:50;;;;;;;41.60;26.10;;;;;;;5.02;86.25;100359.65;106533;1265;1018049;-72
2023/04/07 02:56:43;;;;;;;41.30;28.40;;;;;;;5.05;86.29;100359.58;106491;1264;1016566;-72
2023/04/07 03:01:35;;;;;;;40.50;27.70;;;;;;;5.08;86.30;100361.05;106475;1265;1015977;-72
2023/04/07 03:06:28;;;;;;;38.80;27.30;;;;;;;5.09;86.29;100360.93;106468;1264;1016726;-72
2023/04/07 03:11:29;;;;;;;40.10;26.30;;;;;;;5.11;86.50;100363.40;106424;1265;1065375;-72
2023/04/07 03:16:24;;;;;;;41.70;27.20;;;;;;;5.13;86.46;100362.28;106647;1265;1070576;-72
2023/04/07 03:21:24;;;;;;;39.90;28.00;;;;;;;5.16;86.36;100365.79;106512;1265;1051166;-72
2023/04/07 03:26:17;;;;;;;39.80;27.20;;;;;;;5.17;86.50;100364.46;106471;1265;1018759;-72
2023/04/07 03:31:10;;;;;;;44.30;29.30;;;;;;;5.18;86.56;100365.20;106510;1265;1016441;-72
2023/04/07 03:36:03;;;;;;;41.30;28.60;;;;;;;5.21;86.68;100365.10;106461;1265;1017432;-72
2023/04/07 03:40:57;;;;;;;39.10;27.80;;;;;;;5.22;86.67;100366.52;106444;1265;1016108;-72
2023/04/07 03:45:50;;;;;;;41.30;29.60;;;;;;;5.25;86.72;100365.23;106457;1265;1016493;-72
2023/04/07 03:50:46;;;;;;;42.50;29.30;;;;;;;5.27;86.76;100361.69;106489;1265;1058976;-72
2023/04/07 03:55:42;;;;;;;43.60;28.70;;;;;;;5.29;86.73;100359.38;106397;1265;1075689;-72
2023/04/07 04:00:42;;;;;;;41.90;28.80;;;;;;;5.31;86.88;100358.73;106471;1266;1065294;-72
2023/04/07 04:05:36;;;;;;;40.80;28.10;;;;;;;5.32;86.89;100356.38;106369;1265;1017210;-72
2023/04/07 04:10:29;;;;;;;41.40;28.80;;;;;;;5.35;86.87;100357.86;106518;1264;1016195;-72
2023/04/07 04:15:22;;;;;;;43.80;28.30;;;;;;;5.39;86.96;100362.58;106535;1265;1016652;-72
2023/04/07 04:20:15;;;;;;;41.70;29.90;;;;;;;5.41;87.06;100363.54;106455;1264;1016548;-72
2023/04/07 04:25:12;;;;;;;41.80;26.60;;;;;;;5.45;87.12;100368.63;106458;1265;1064169;-72
2023/04/07 04:30:08;;;;;;;38.00;28.60;;;;;;;5.48;87.26;100370.94;106476;1265;1071157;-72
2023/04/07 04:35:13;;;;;;;38.10;29.00;;;;;;;5.50;87.24;100373.98;106485;1266;1051280;-72
2023/04/07 04:40:14;;;;;;;36.30;27.30;;;;;;;5.53;87.23;100375.60;106500;1266;1058275;-72
2023/04/07 04:45:09;;;;;;;42.30;28.40;;;;;;;5.55;87.29;100376.88;106481;1265;1015917;-71
2023/04/07 04:50:03;;;;;;;41.30;29.50;;;;;;;5.60;87.37;100379.61;106530;1265;1065685;-72
2023/04/07 04:54:58;;;;;;;38.40;28.20;;;;;;;5.65;87.48;100377.54;106471;1264;1071264;-72
2023/04/07 04:59:51;;;;;;;42.40;29.70;;;;;;;5.72;87.40;100380.51;106504;1265;1016380;-72
2023/04/07 05:04:45;;;;;;;41.20;30.30;;;;;;;5.79;87.35;100380.02;106438;1265;1016232;-72
2023/04/07 05:09:50;;;;;;;41.00;29.60;;;;;;;5.84;87.31;100377.09;106498;1267;1073499;-71
2023/04/07 05:14:43;;;;;;;42.50;29.30;;;;;;;5.87;87.36;100380.09;106472;1265;1019090;-72
2023/04/07 05:19:36;;;;;;;41.60;30.20;;;;;;;5.91;87.34;100380.90;106381;1265;1017464;-72
2023/04/07 05:24:35;;;;;;;43.70;31.80;;;;;;;5.96;87.55;100380.71;106523;1265;1050490;-72
2023/04/07 05:29:28;;;;;;;46.40;29.60;;;;;;;6.01;87.52;100378.30;106531;1265;1016247;-72
2023/04/07 05:34:22;;;;;;;39.20;28.20;;;;;;;6.06;87.46;100379.84;106486;1265;1016243;-72
2023/04/07 05:39:18;;;;;;;40.50;28.80;;;;;;;6.10;87.43;100382.38;106589;1265;1065355;-72
2023/04/07 05:44:12;;;;;;;37.30;29.30;;;;;;;6.16;87.46;100382.36;106424;1265;1016412;-72
2023/04/07 05:49:06;;;;;;;39.10;28.30;;;;;;;6.21;87.33;100384.76;106460;1265;1016485;-73
2023/04/07 05:54:05;;;;;;;37.80;28.10;;;;;;;6.28;87.33;100389.10;106494;1268;1058621;-74
2023/04/07 05:58:59;;;;;;;37.20;27.60;;;;;;;6.37;87.24;100384.86;106507;1265;1016269;-72
2023/04/07 06:03:52;;;;;;;36.10;27.60;;;;;;;6.46;87.18;100381.00;106518;1265;1065463;-72
2023/04/07 06:08:50;;;;;;;34.30;27.30;;;;;;;6.59;87.07;100376.88;106368;1264;1069605;-72
2023/04/07 06:13:43;;;;;;;34.50;27.30;;;;;;;6.73;86.93;100375.70;106463;1265;1017283;-72
2023/04/07 06:18:36;;;;;;;35.80;27.20;;;;;;;6.88;86.76;100374.20;106349;1265;1016270;-72
2023/04/07 06:23:31;;;;;;;31.10;25.30;;;;;;;7.10;86.41;100377.53;106457;1265;1072199;-72
2023/04/07 06:28:24;;;;;;;31.40;26.00;;;;;;;7.34;86.22;100373.46;106370;1265;1016124;-72
2023/04/07 06:33:17;;;;;;;29.40;23.70;;;;;;;7.67;85.70;100375.48;106367;1265;1016223;-72
2023/04/07 06:38:11;;;;;;;27.70;22.70;;;;;;;7.79;85.44;100381.10;106375;1268;1017564;-73
2023/04/07 06:43:05;;;;;;;28.00;24.20;;;;;;;7.83;85.29;100383.27;106422;1268;1017063;-73
2023/04/07 06:48:14;;;;;;;29.10;25.90;;;;;;;7.89;85.50;100376.84;106215;1265;1072781;-73
2023/04/07 06:53:07;;;;;;;26.60;22.80;;;;;;;7.93;85.23;100377.27;106869;1265;1016614;-73
2023/04/07 06:58:00;;;;;;;27.70;23.20;;;;;;;7.86;85.25;100371.06;106392;1264;1016560;-73
2023/04/07 07:02:54;;;;;;;30.30;22.80;;;;;;;7.87;85.62;100374.02;106286;1266;1051376;-72
2023/04/07 07:07:47;;;;;;;31.70;23.60;;;;;;;7.89;85.54;100373.22;106624;1266;1016283;-72
2023/04/07 07:12:40;;;;;;;27.70;23.70;;;;;;;7.92;85.47;100373.64;106457;1265;1015783;-72
2023/04/07 07:17:33;;;;;;;26.40;22.40;;;;;;;7.92;85.65;100375.88;106589;1266;1016276;-72
2023/04/07 07:22:26;;;;;;;28.80;25.10;;;;;;;7.89;85.71;100378.21;106315;1266;1016188;-73
2023/04/07 07:27:19;;;;;;;27.50;22.80;;;;;;;7.97;85.80;100381.86;106354;1267;1016965;-73
2023/04/07 07:32:11;;;;;;;29.80;23.20;;;;;;;8.34;85.32;100385.91;106392;1265;1016426;-73
2023/04/07 07:37:04;;;;;;;25.30;21.50;;;;;;;8.92;84.34;100383.96;106446;1266;1016511;-73
2023/04/07 07:41:57;;;;;;;22.70;19.80;;;;;;;9.45;83.46;100381.43;106502;1265;1016325;-74
2023/04/07 07:46:50;;;;;;;21.70;19.00;;;;;;;9.73;83.19;100380.64;106374;1265;1016577;-73
2023/04/07 07:51:44;;;;;;;20.30;18.30;;;;;;;9.99;82.90;100379.45;106364;1268;1016058;-74
2023/04/07 07:56:37;;;;;;;22.70;17.80;;;;;;;10.03;82.63;100380.55;106602;1265;1018357;-74
2023/04/07 08:01:30;;;;;;;22.00;19.00;;;;;;;10.07;82.38;100385.80;106376;1266;1016361;-73
2023/04/07 08:06:24;;;;;;;21.90;19.50;;;;;;;10.09;82.23;100392.60;106477;1267;1016610;-74
2023/04/07 08:11:17;;;;;;;19.80;17.50;;;;;;;10.13;82.21;100387.45;106345;1267;1016444;-73
2023/04/07 08:16:11;;;;;;;22.80;18.90;;;;;;;10.11;82.34;100388.79;106311;1268;1016678;-73
2023/04/07 08:21:05;;;;;;;19.90;17.30;;;;;;;10.03;82.50;100392.15;106514;1265;1016440;-74
2023/04/07 08:25:58;;;;;;;21.00;17.50;;;;;;;10.15;82.45;100391.11;106360;1265;1016351;-74
2023/04/07 08:30:51;;;;;;;20.30;17.50;;;;;;;10.31;82.26;100394.27;106402;1268;1016015;-74
2023/04/07 08:35:44;;;;;;;18.20;16.30;;;;;;;10.42;81.93;100392.02;106423;1265;1015980;-73
2023/04/07 08:40:37;;;;;;;18.40;16.60;;;;;;;10.58;81.60;100391.33;106403;1266;1016285;-75
2023/04/07 08:45:33;;;;;;;16.80;15.00;;;;;;;10.58;81.53;100392.03;106393;1268;1016501;-74
2023/04/07 08:50:27;;;;;;;18.10;16.00;;;;;;;10.48;81.80;100391.91;106383;1265;1072688;-74
2023/04/07 08:55:20;;;;;;;18.00;15.40;;;;;;;10.33;81.98;100389.63;106458;1268;1016171;-73
2023/04/07 09:00:14;;;;;;;17.80;15.90;;;;;;;10.24;82.32;100392.09;106346;1268;1016056;-74
2023/04/07 09:05:09;;;;;;;18.30;14.80;;;;;;;10.15;82.58;100397.16;106324;1268;1051245;-73
2023/04/07 09:10:02;;;;;;;18.50;15.40;;;;;;;10.01;82.76;100398.52;106384;1266;1016088;-74
2023/04/07 09:14:56;;;;;;;19.20;15.90;;;;;;;9.94;82.91;100396.02;106384;1267;1016307;-73
2023/04/07 09:19:49;;;;;;;16.70;15.00;;;;;;;9.90;83.00;100391.10;106386;1267;1016297;-75
2023/04/07 09:24:42;;;;;;;16.50;14.80;;;;;;;10.07;82.94;100389.78;106416;1267;1015820;-73
2023/04/07 09:29:35;;;;;;;18.30;16.00;;;;;;;10.29;82.63;100385.59;106454;1268;1018896;-72
2023/04/07 09:34:33;;;;;;;18.40;15.00;;;;;;;10.37;82.79;100386.93;106524;1267;1016820;-72
2023/04/07 09:39:26;;;;;;;17.10;14.70;;;;;;;10.53;82.65;100384.17;106491;1269;1072999;-73
2023/04/07 09:44:21;;;;;;;16.60;14.90;;;;;;;10.71;82.28;100386.11;106569;1267;1016413;-73
2023/04/07 09:49:14;;;;;;;17.30;15.50;;;;;;;10.70;82.37;100388.88;106425;1267;1070207;-72
2023/04/07 09:54:07;;;;;;;15.70;13.90;;;;;;;10.74;82.50;100392.38;106470;1268;1016259;-72
2023/04/07 09:59:01;;;;;;;18.70;14.20;;;;;;;10.89;82.42;100387.69;106410;1268;1016433;-73
2023/04/07 10:03:55;;;;;;;16.00;14.20;;;;;;;10.94;82.25;100388.09;106563;1268;1016667;-72
2023/04/07 10:08:48;;;;;;;14.80;13.20;;;;;;;11.13;82.24;100388.61;106484;1267;1016504;-72
2023/04/07 10:13:42;;;;;;;15.90;14.30;;;;;;;11.24;81.95;100392.53;106466;1266;1016474;-72
2023/04/07 10:18:37;;;;;;;15.50;14.10;;;;;;;11.20;82.12;100396.13;106461;1268;1016247;-73
2023/04/07 10:23:56;;;;;;;14.50;13.00;;;;;;;11.24;82.00;100397.91;106599;1267;1059435;-72
2023/04/07 10:28:53;;;;;;;15.60;14.00;;;;;;;11.33;81.97;100398.34;106541;1267;1073800;-75
2023/04/07 10:33:49;;;;;;;13.80;12.30;;;;;;;11.41;81.99;100394.77;106576;1267;1065620;-73
2023/04/07 10:39:09;;;;;;;14.00;12.10;;;;;;;11.51;81.77;100397.96;106447;1267;1071032;-73
2023/04/07 10:44:04;;;;;;;13.60;12.30;;;;;;;11.53;81.75;100399.89;106411;1269;1053213;-73
2023/04/07 10:49:10;;;;;;;13.00;11.70;;;;;;;11.37;81.94;100401.15;106450;1267;1016411;-73
2023/04/07 10:54:22;;;;;;;13.10;11.80;;;;;;;11.25;82.41;100406.26;107857;1266;1073547;-73
2023/04/07 10:59:16;;;;;;;13.20;11.20;;;;;;;11.21;82.44;100404.81;106483;1266;1065313;-72
2023/04/07 11:04:08;;;;;;;12.90;11.60;;;;;;;11.19;82.53;100409.84;106472;1267;1016615;-72
2023/04/07 11:09:02;;;;;;;14.10;12.20;;;;;;;11.13;82.82;100414.80;106405;1267;1016509;-73
2023/04/07 11:13:55;;;;;;;14.00;12.60;;;;;;;11.05;82.79;100418.55;106420;1267;1016640;-72
2023/04/07 11:18:47;;;;;;;13.30;11.90;;;;;;;11.04;82.90;100422.88;106303;1268;1016462;-73
2023/04/07 11:23:43;;;;;;;14.00;12.60;;;;;;;11.03;82.74;100423.02;106418;1265;1016259;-73
2023/04/07 11:28:45;;;;;;;15.30;13.70;;;;;;;11.01;83.09;100427.17;106341;1264;1072910;-73
2023/04/07 11:33:40;;;;;;;14.40;13.00;;;;;;;11.01;83.30;100432.73;106484;1265;1050842;-73
2023/04/07 11:38:38;;;;;;;13.70;11.80;;;;;;;11.06;83.30;100433.30;106590;1265;1058046;-73
2023/04/07 11:43:31;;;;;;;14.60;11.00;;;;;;;11.15;83.23;100436.52;106659;1266;1075657;-73
2023/04/07 11:48:30;;;;;;;13.00;11.80;;;;;;;11.14;83.40;100437.02;106391;1267;1016242;-74
2023/04/07 11:53:31;;;;;;;12.50;10.60;;;;;;;11.22;83.52;100439.02;106622;1265;1070874;-74
2023/04/07 11:58:50;;;;;;;14.90;13.30;;;;;;;11.46;83.22;100439.23;209521;1294;601078;-73
2023/04/07 12:04:03;;;;;;;12.60;11.40;;;;;;;11.56;83.15;100432.90;214479;1263;62573;-73
2023/04/07 12:08:56;;;;;;;14.10;12.70;;;;;;;11.59;83.05;100444.38;214209;1260;134563;-73
2023/04/07 12:13:49;;;;;;;13.10;11.80;;;;;;;11.84;83.21;100444.05;214653;1260;59336;-73
2023/04/07 12:18:42;;;;;;;9.60;7.90;;;;;;;11.97;82.76;100453.21;214548;1259;60859;-75
2023/04/07 12:23:36;;;;;;;6.00;5.30;;;;;;;12.17;81.74;100459.08;214576;1259;59287;-73
2023/04/07 12:28:28;;;;;;;3.80;3.50;;;;;;;12.87;81.04;100465.67;214717;1260;59253;-74
2023/04/07 12:33:23;;;;;;;3.50;2.40;;;;;;;13.61;78.99;100459.59;214848;1262;66097;-73
2023/04/07 12:38:16;;;;;;;2.60;2.40;;;;;;;13.57;77.35;100465.69;214565;1259;59708;-74
2023/04/07 12:43:09;;;;;;;2.10;1.90;;;;;;;13.49;76.77;100470.73;214593;1259;59248;-73
2023/04/07 12:48:03;;;;;;;2.50;2.10;;;;;;;13.26;76.92;100478.32;214717;1259;71159;-74
2023/04/07 12:52:57;;;;;;;2.20;2.00;;;;;;;13.05;76.63;100479.48;214868;1259;60332;-74
2023/04/07 12:57:51;;;;;;;2.60;2.20;;;;;;;12.72;76.79;100481.10;216052;1255;67870;-74
2023/04/07 13:02:44;;;;;;;2.50;2.30;;;;;;;12.55;76.32;100488.85;215958;1255;59707;-74
2023/04/07 13:07:38;;;;;;;2.70;2.50;;;;;;;12.38;75.28;100493.11;215746;1253;73836;-74
2023/04/07 13:12:31;;;;;;;3.80;2.00;;;;;;;12.26;75.20;100499.63;215740;1253;59686;-74
2023/04/07 13:17:23;;;;;;;2.50;2.30;;;;;;;12.10;75.16;100503.50;215824;1253;59789;-74
2023/04/07 13:22:16;;;;;;;3.10;2.40;;;;;;;11.88;75.08;100512.70;215915;1255;59589;-73
2023/04/07 13:27:13;;;;;;;2.40;2.10;;;;;;;11.83;75.14;100508.30;216106;1253;59642;-74
2023/04/07 13:32:11;;;;;;;3.00;2.80;;;;;;;11.93;75.38;100508.40;216152;1252;59720;-73
2023/04/07 13:37:05;;;;;;;3.00;2.50;;;;;;;12.15;75.10;100510.33;215928;1255;72396;-74
2023/04/07 13:41:59;;;;;;;2.60;2.40;;;;;;;12.17;74.16;100512.42;216149;1255;60038;-75
2023/04/07 13:46:54;;;;;;;3.80;2.70;;;;;;;12.08;73.53;100521.39;215994;1253;67266;-74
2023/04/07 13:51:48;;;;;;;3.00;2.80;;;;;;;12.10;73.24;100524.70;216119;1253;59647;-74
2023/04/07 13:56:41;;;;;;;3.30;3.00;;;;;;;12.10;72.91;100525.57;215948;1253;73480;-74
2023/04/07 14:01:37;;;;;;;3.70;2.90;;;;;;;11.93;72.95;100533.41;216008;1253;59743;-74
2023/04/07 14:06:30;;;;;;;2.80;2.40;;;;;;;11.63;73.46;100547.35;215984;1255;60238;-74
2023/04/07 14:11:23;;;;;;;3.10;2.80;;;;;;;11.32;73.60;100560.75;216067;1253;65629;-74
2023/04/07 14:16:17;;;;;;;2.70;2.30;;;;;;;11.02;73.53;100562.29;215850;1253;59679;-74
2023/04/07 14:21:10;;;;;;;2.40;2.20;;;;;;;10.89;73.47;100559.52;216034;1253;73811;-74
2023/04/07 14:26:03;;;;;;;3.00;2.60;;;;;;;10.86;73.61;100562.78;215900;1253;59743;-73
2023/04/07 14:30:56;;;;;;;5.50;2.60;;;;;;;10.84;73.54;100561.02;215945;1253;59654;-73
2023/04/07 14:35:50;;;;;;;3.70;2.40;;;;;;;10.79;73.22;100572.23;215852;1253;59651;-73
2023/04/07 14:40:44;;;;;;;3.40;2.90;;;;;;;10.85;73.29;100574.72;215945;1253;59618;-74
2023/04/07 14:45:37;;;;;;;3.20;2.80;;;;;;;11.00;72.87;100575.45;215688;1253;73949;-75
2023/04/07 14:50:33;;;;;;;3.90;2.90;;;;;;;11.14;72.37;100573.89;215439;1253;72883;-73
2023/04/07 14:55:26;;;;;;;5.40;3.00;;;;;;;11.30;72.30;100576.00;215818;1253;60251;-73
2023/04/07 15:00:19;;;;;;;3.70;2.80;;;;;;;11.58;71.95;100579.25;215952;1253;67680;-73
2023/04/07 15:05:12;;;;;;;3.30;2.60;;;;;;;11.80;71.49;100581.91;215871;1253;59605;-74
2023/04/07 15:10:06;;;;;;;3.30;2.80;;;;;;;11.78;70.87;100582.05;215877;1253;59666;-73
2023/04/07 15:14:59;;;;;;;3.80;2.60;;;;;;;11.71;70.46;100585.98;215938;1252;72438;-72
2023/04/07 15:19:52;;;;;;;3.10;2.50;;;;;;;11.58;70.03;100587.06;215775;1251;59743;-72
2023/04/07 15:24:45;;;;;;;4.50;2.80;;;;;;;11.50;70.18;100598.61;216213;1253;59747;-72
2023/04/07 15:29:41;;;;;;;2.90;2.30;;;;;;;11.37;70.14;100606.79;215988;1253;59650;-73
2023/04/07 15:34:34;;;;;;;3.10;2.80;;;;;;;11.28;70.56;100609.63;216105;1253;72814;-72
2023/04/07 15:39:26;;;;;;;5.30;2.90;;;;;;;11.07;70.41;100612.83;216093;1253;59608;-73
2023/04/07 15:44:19;;;;;;;4.70;3.30;;;;;;;10.87;70.82;100612.37;216152;1254;59817;-72
2023/04/07 15:49:12;;;;;;;5.40;3.70;;;;;;;10.79;71.22;100618.33;216148;1253;59752;-72
2023/04/07 15:54:05;;;;;;;4.20;2.50;;;;;;;10.66;70.58;100619.36;216115;1253;59604;-72
2023/04/07 15:58:58;;;;;;;5.40;2.90;;;;;;;10.50;70.58;100626.92;216067;1255;59660;-72
2023/04/07 16:03:51;;;;;;;3.60;3.00;;;;;;;10.41;70.61;100625.56;216090;1255;59718;-72
2023/04/07 16:08:44;;;;;;;4.40;3.30;;;;;;;10.33;70.44;100634.77;216144;1253;59786;-72
2023/04/07 16:13:37;;;;;;;3.70;2.90;;;;;;;10.21;70.11;100642.34;216121;1254;59990;-72
2023/04/07 16:18:30;;;;;;;3.30;2.70;;;;;;;10.12;70.22;100645.13;216140;1255;61212;-72
2023/04/07 16:23:22;;;;;;;4.20;3.10;;;;;;;9.99;69.84;100654.43;216087;1255;59850;-73
2023/04/07 16:28:16;;;;;;;4.90;3.70;;;;;;;9.82;69.99;100664.48;216064;1253;70498;-72
2023/04/07 16:33:09;;;;;;;3.20;2.60;;;;;;;9.64;69.80;100676.60;216124;1255;59765;-72
2023/04/07 16:38:04;;;;;;;3.00;2.30;;;;;;;9.45;69.56;100679.69;216040;1253;62909;-73
2023/04/07 16:42:58;;;;;;;3.50;2.60;;;;;;;9.29;69.78;100693.17;216204;1255;60185;-73
2023/04/07 16:47:51;;;;;;;3.50;3.20;;;;;;;9.14;69.74;100702.70;216158;1253;74065;-72
2023/04/07 16:52:45;;;;;;;3.70;2.80;;;;;;;8.99;69.94;100708.42;216071;1255;59624;-72
2023/04/07 16:57:38;;;;;;;5.80;2.90;;;;;;;8.88;70.08;100716.11;216190;1255;61075;-72
2023/04/07 17:02:32;;;;;;;4.10;2.90;;;;;;;8.78;70.23;100722.29;216113;1254;59757;-73
2023/04/07 17:07:25;;;;;;;3.70;2.80;;;;;;;8.71;70.71;100728.84;216130;1251;59749;-73
2023/04/07 17:12:18;;;;;;;3.30;2.80;;;;;;;8.66;70.81;100739.41;216104;1254;59724;-73
2023/04/07 17:17:10;;;;;;;4.50;3.40;;;;;;;8.58;71.21;100748.73;216167;1255;59804;-72
2023/04/07 17:22:03;;;;;;;6.80;3.90;;;;;;;8.53;71.44;100754.82;216098;1255;59868;-73
2023/04/07 17:26:56;;;;;;;3.70;2.80;;;;;;;8.49;71.67;100758.15;215988;1254;59745;-73
2023/04/07 17:31:49;;;;;;;5.40;2.80;;;;;;;8.44;71.52;100762.17;216082;1255;59594;-73
2023/04/07 17:36:42;;;;;;;4.10;3.20;;;;;;;8.38;71.78;100770.48;215998;1256;59651;-73
2023/04/07 17:41:37;;;;;;;4.90;3.70;;;;;;;8.33;72.16;100782.25;216063;1253;59758;-73
2023/04/07 17:46:30;;;;;;;6.30;3.40;;;;;;;8.27;72.36;100790.88;215945;1252;60559;-73
2023/04/07 17:51:25;;;;;;;6.00;2.90;;;;;;;8.22;72.36;100793.50;216194;1256;65850;-73
2023/04/07 17:56:19;;;;;;;4.60;3.30;;;;;;;8.19;72.19;100804.83;216090;1254;59670;-73
2023/04/07 18:01:12;;;;;;;4.40;3.20;;;;;;;8.16;72.40;100807.15;216143;1253;71671;-73
2023/04/07 18:06:07;;;;;;;6.00;3.40;;;;;;;8.12;72.40;100815.16;216039;1253;72541;-73
2023/04/07 18:11:00;;;;;;;5.30;3.50;;;;;;;8.09;72.46;100824.91;216230;1254;60279;-73
2023/04/07 18:15:53;;;;;;;4.60;3.50;;;;;;;8.06;72.57;100841.59;216182;1255;66301;-73
2023/04/07 18:20:47;;;;;;;3.40;3.00;;;;;;;8.03;72.58;100850.48;215895;1256;59734;-73
2023/04/07 18:25:39;;;;;;;4.10;3.70;;;;;;;7.99;72.40;100859.33;216109;1253;73813;-73
2023/04/07 18:30:33;;;;;;;4.90;4.00;;;;;;;7.95;72.67;100863.89;216159;1255;59666;-73
2023/04/07 18:35:27;;;;;;;4.60;3.20;;;;;;;7.91;72.96;100870.99;216074;1254;61278;-73
2023/04/07 18:40:20;;;;;;;5.00;4.50;;;;;;;7.87;72.50;100877.25;216071;1253;65896;-73
2023/04/07 18:45:13;;;;;;;3.80;3.50;;;;;;;7.81;72.71;100888.98;215980;1255;59689;-73
2023/04/07 18:50:07;;;;;;;5.30;4.30;;;;;;;7.73;72.79;100890.80;216163;1256;59861;-73
2023/04/07 18:55:00;;;;;;;5.10;3.70;;;;;;;7.67;73.12;100901.84;216201;1256;71926;-73
2023/04/07 18:59:52;;;;;;;5.50;4.00;;;;;;;7.62;73.09;100907.70;216186;1256;59624;-73
2023/04/07 19:04:45;;;;;;;6.00;5.30;;;;;;;7.59;73.42;100911.77;216260;1253;60233;-73
2023/04/07 19:09:38;;;;;;;5.70;4.90;;;;;;;7.59;73.30;100921.60;216220;1254;59695;-73
2023/04/07 19:14:31;;;;;;;8.50;5.30;;;;;;;7.59;73.64;100923.15;216152;1253;59646;-73
2023/04/07 19:19:24;;;;;;;5.30;4.80;;;;;;;7.56;73.41;100929.45;216122;1253;59672;-73
2023/04/07 19:24:17;;;;;;;5.40;4.90;;;;;;;7.52;73.20;100934.29;216164;1254;60199;-73
2023/04/07 19:29:11;;;;;;;4.20;3.80;;;;;;;7.42;72.81;100938.30;216211;1254;66900;-73
2023/04/07 19:34:04;;;;;;;5.20;4.50;;;;;;;7.31;72.55;100941.02;216174;1253;59718;-72
2023/04/07 19:38:57;;;;;;;5.40;4.30;;;;;;;7.22;72.62;100942.80;216216;1254;59683;-73
2023/04/07 19:43:50;;;;;;;4.90;4.10;;;;;;;7.16;72.71;100947.42;216159;1253;60272;-73
2023/04/07 19:48:43;;;;;;;4.70;4.00;;;;;;;7.10;72.51;100954.60;216097;1254;60049;-74
2023/04/07 19:53:36;;;;;;;5.20;4.50;;;;;;;7.02;72.66;100962.41;216161;1253;60147;-74
2023/04/07 19:58:29;;;;;;;4.80;3.80;;;;;;;6.95;72.69;100972.02;216214;1253;59717;-74
2023/04/07 20:03:22;;;;;;;4.20;3.80;;;;;;;6.89;72.56;100980.27;216171;1254;59849;-74
2023/04/07 20:08:16;;;;;;;5.10;4.50;;;;;;;6.85;72.88;100988.73;216242;1254;72239;-74
2023/04/07 20:13:09;;;;;;;5.60;4.50;;;;;;;6.79;72.75;100996.40;216115;1254;60457;-73
2023/04/07 20:18:02;;;;;;;4.50;4.00;;;;;;;6.72;72.62;101005.83;216191;1254;66417;-73
2023/04/07 20:22:55;;;;;;;4.10;3.60;;;;;;;6.65;72.42;101015.05;216184;1253;60534;-73
2023/04/07 20:27:49;;;;;;;3.50;3.20;;;;;;;6.57;71.88;101017.33;216156;1254;60437;-73
2023/04/07 20:32:42;;;;;;;3.20;2.90;;;;;;;6.50;71.86;101021.20;216186;1252;71512;-73
2023/04/07 20:37:35;;;;;;;4.60;3.60;;;;;;;6.46;72.02;101027.77;216142;1254;60550;-73
2023/04/07 20:42:28;;;;;;;3.70;3.40;;;;;;;6.40;71.79;101029.92;216082;1256;67480;-73
2023/04/07 20:47:21;;;;;;;4.80;4.30;;;;;;;6.34;72.04;101032.09;216193;1254;60436;-73
2023/04/07 20:52:14;;;;;;;5.20;4.50;;;;;;;6.35;72.03;101035.42;216267;1254;60450;-73
2023/04/07 20:57:06;;;;;;;5.70;5.20;;;;;;;6.35;72.05;101033.19;216153;1254;60517;-73
2023/04/07 21:01:59;;;;;;;4.80;4.40;;;;;;;6.33;71.88;101041.71;216137;1254;60544;-73
2023/04/07 21:06:52;;;;;;;6.80;4.70;;;;;;;6.32;71.91;101042.36;216048;1252;60427;-73
2023/04/07 21:11:45;;;;;;;4.40;4.00;;;;;;;6.31;71.90;101043.52;216137;1254;60566;-73
2023/04/07 21:16:38;;;;;;;5.30;4.40;;;;;;;6.29;71.72;101047.22;216024;1256;60563;-73
2023/04/07 21:21:31;;;;;;;4.60;4.00;;;;;;;6.25;71.49;101047.39;215904;1254;60541;-73
2023/04/07 21:26:25;;;;;;;6.20;5.30;;;;;;;6.22;71.37;101051.60;216152;1254;60434;-73
2023/04/07 21:31:22;;;;;;;4.30;3.90;;;;;;;6.20;71.11;101056.52;215849;1253;67917;-73
2023/04/07 21:36:15;;;;;;;4.30;3.90;;;;;;;6.21;71.30;101061.36;216213;1254;60455;-73
2023/04/07 21:41:08;;;;;;;5.40;4.90;;;;;;;6.19;71.15;101065.06;215929;1255;62362;-73
2023/04/07 21:46:01;;;;;;;5.90;5.30;;;;;;;6.17;71.12;101068.93;215897;1254;73528;-73
2023/04/07 21:50:54;;;;;;;5.40;4.90;;;;;;;6.15;71.29;101073.16;215769;1253;60527;-73
2023/04/07 21:55:47;;;;;;;6.50;5.70;;;;;;;6.14;71.31;101078.64;215838;1254;60469;-72
2023/04/07 22:00:40;;;;;;;7.40;6.60;;;;;;;6.13;71.34;101086.16;216107;1254;60428;-73
2023/04/07 22:05:38;;;;;;;6.30;5.70;;;;;;;6.12;71.18;101087.17;216231;1253;73707;-72
2023/04/07 22:10:31;;;;;;;5.90;5.30;;;;;;;6.09;71.14;101081.88;216131;1253;73250;-73
2023/04/07 22:15:24;;;;;;;6.20;5.00;;;;;;;6.06;71.14;101089.03;216207;1253;60536;-72